This is the latest recevied weather packets stored in our database for station/object IR1CH-3. If no packets are shown the sender has not sent any weather packets the latest 10 day(s).
| Time | Temp. | Humidity | Pressure | Rain* | Wind** | Luminosity | Snow |
|---|---|---|---|---|---|---|---|
| 1777876854 | 17.78° C | 78% | 1017.9 hPa | - | - | - | - |
| 1777875053 | 17.78° C | 77% | 1017.8 hPa | - | - | - | - |
| 1777873253 | 18.33° C | 72% | 1017.5 hPa | - | - | - | - |
| 1777871452 | 15.56° C | 84% | 1017.4 hPa | - | - | - | - |
| 1777869652 | 15.56° C | 80% | 1017.6 hPa | - | - | - | - |
| 1777867852 | 15.56° C | 81% | 1017.5 hPa | - | - | - | - |
| 1777866052 | 15.56° C | 81% | 1017.4 hPa | - | - | - | - |
| 1777864251 | 15° C | 82% | 1017.5 hPa | - | - | - | - |
| 1777862451 | 15° C | 77% | 1017.5 hPa | - | - | - | - |
| 1777860650 | 15° C | 75% | 1017.6 hPa | - | - | - | - |
| 1777858850 | 15.56° C | 72% | 1017.7 hPa | - | - | - | - |
| 1777857050 | 15.56° C | 71% | 1017.6 hPa | - | - | - | - |
| 1777855249 | 15.56° C | 65% | 1017.7 hPa | - | - | - | - |
| 1777853449 | 15.56° C | 58% | 1018.1 hPa | - | - | - | - |
| 1777851649 | 15.56° C | 55% | 1018.3 hPa | - | - | - | - |
| 1777849849 | 15.56° C | 55% | 1018.2 hPa | - | - | - | - |
| 1777848048 | 15.56° C | 57% | 1018.3 hPa | - | - | - | - |
| 1777844448 | 15.56° C | 66% | 1018.4 hPa | - | - | - | - |
| 1777842649 | 15.56° C | 74% | 1018.5 hPa | - | - | - | - |
| 1777840892 | 15.56° C | 77% | 1018.6 hPa | - | - | - | - |
| 1777839092 | 16.11° C | 79% | 1018.5 hPa | - | - | - | - |
| 1777837292 | 16.11° C | 79% | 1018.2 hPa | - | - | - | - |
| 1777835491 | 16.67° C | 83% | 1018.1 hPa | - | - | - | - |
| 1777833691 | 16.67° C | 84% | 1017.9 hPa | - | - | - | - |
| 1777831891 | 17.22° C | 84% | 1017.9 hPa | - | - | - | - |
* Rain since midnight (hover to see other rain measurements)
** Current wind speed in m/s (hover to see current wind gust speed)